sensor_id;sensor_type;location;lat;lon;timestamp;pressure;altitude;pressure_sealevel;temperature
68127;BMP180;54931;52.098;21.006;2022-12-31T00:01:21;100220.80;;;2.08
68127;BMP180;54931;52.098;21.006;2022-12-31T00:03:50;100222.20;;;2.10
68127;BMP180;54931;52.098;21.006;2022-12-31T00:06:31;100227.00;;;2.02
68127;BMP180;54931;52.098;21.006;2022-12-31T00:09:03;100217.40;;;2.00
68127;BMP180;54931;52.098;21.006;2022-12-31T00:11:34;100207.60;;;2.00
68127;BMP180;54931;52.098;21.006;2022-12-31T00:14:04;100199.00;;;2.00
68127;BMP180;54931;52.098;21.006;2022-12-31T00:16:40;100201.00;;;2.00
68127;BMP180;54931;52.098;21.006;2022-12-31T00:19:10;100195.60;;;2.00
68127;BMP180;54931;52.098;21.006;2022-12-31T00:21:39;100195.40;;;2.00
68127;BMP180;54931;52.098;21.006;2022-12-31T00:24:09;100190.20;;;2.00
68127;BMP180;54931;52.098;21.006;2022-12-31T00:26:37;100190.60;;;2.00
68127;BMP180;54931;52.098;21.006;2022-12-31T00:29:05;100186.60;;;2.00
68127;BMP180;54931;52.098;21.006;2022-12-31T00:31:36;100179.20;;;2.00
68127;BMP180;54931;52.098;21.006;2022-12-31T00:34:05;100186.60;;;1.94
68127;BMP180;54931;52.098;21.006;2022-12-31T00:36:37;100180.40;;;1.90
68127;BMP180;54931;52.098;21.006;2022-12-31T00:39:07;100181.40;;;1.90
68127;BMP180;54931;52.098;21.006;2022-12-31T00:41:35;100179.60;;;1.90
68127;BMP180;54931;52.098;21.006;2022-12-31T00:44:04;100178.40;;;1.90
68127;BMP180;54931;52.098;21.006;2022-12-31T00:46:32;100178.00;;;1.90
68127;BMP180;54931;52.098;21.006;2022-12-31T00:49:00;100168.60;;;1.90
68127;BMP180;54931;52.098;21.006;2022-12-31T00:51:28;100172.20;;;1.94
68127;BMP180;54931;52.098;21.006;2022-12-31T00:53:57;100166.60;;;2.00
68127;BMP180;54931;52.098;21.006;2022-12-31T00:56:28;100171.80;;;2.00
68127;BMP180;54931;52.098;21.006;2022-12-31T00:58:58;100165.00;;;2.00
68127;BMP180;54931;52.098;21.006;2022-12-31T01:01:36;100156.20;;;2.00
68127;BMP180;54931;52.098;21.006;2022-12-31T01:04:18;100154.00;;;2.00
68127;BMP180;54931;52.098;21.006;2022-12-31T01:06:47;100149.00;;;2.04
68127;BMP180;54931;52.098;21.006;2022-12-31T01:09:17;100144.60;;;2.06
68127;BMP180;54931;52.098;21.006;2022-12-31T01:11:45;100136.80;;;2.10
68127;BMP180;54931;52.098;21.006;2022-12-31T01:14:17;100127.20;;;2.10
68127;BMP180;54931;52.098;21.006;2022-12-31T01:16:51;100116.20;;;2.20
68127;BMP180;54931;52.098;21.006;2022-12-31T01:19:26;100114.40;;;2.20
68127;BMP180;54931;52.098;21.006;2022-12-31T01:21:56;100113.00;;;2.20
68127;BMP180;54931;52.098;21.006;2022-12-31T01:24:23;100113.40;;;2.20
68127;BMP180;54931;52.098;21.006;2022-12-31T01:26:51;100114.20;;;2.20
68127;BMP180;54931;52.098;21.006;2022-12-31T01:29:22;100118.00;;;2.20
68127;BMP180;54931;52.098;21.006;2022-12-31T01:31:50;100120.00;;;2.20
68127;BMP180;54931;52.098;21.006;2022-12-31T01:34:18;100114.20;;;2.20
68127;BMP180;54931;52.098;21.006;2022-12-31T01:36:45;100112.80;;;2.22
68127;BMP180;54931;52.098;21.006;2022-12-31T01:39:13;100115.80;;;2.24
68127;BMP180;54931;52.098;21.006;2022-12-31T01:41:44;100115.20;;;2.30
68127;BMP180;54931;52.098;21.006;2022-12-31T01:46:51;100114.60;;;2.40
68127;BMP180;54931;52.098;21.006;2022-12-31T01:49:30;100107.60;;;2.40
68127;BMP180;54931;52.098;21.006;2022-12-31T01:52:20;100100.00;;;2.40
68127;BMP180;54931;52.098;21.006;2022-12-31T01:57:49;100103.60;;;2.50
68127;BMP180;54931;52.098;21.006;2022-12-31T02:00:19;100097.40;;;2.60
68127;BMP180;54931;52.098;21.006;2022-12-31T02:02:47;100084.20;;;2.60
68127;BMP180;54931;52.098;21.006;2022-12-31T02:06:02;100060.40;;;2.70
68127;BMP180;54931;52.098;21.006;2022-12-31T02:08:32;100059.00;;;2.80
68127;BMP180;54931;52.098;21.006;2022-12-31T02:11:15;100059.00;;;2.90
68127;BMP180;54931;52.098;21.006;2022-12-31T02:13:45;100063.80;;;3.00
68127;BMP180;54931;52.098;21.006;2022-12-31T02:19:54;100049.60;;;3.10
68127;BMP180;54931;52.098;21.006;2022-12-31T02:29:16;100038.00;;;3.10
68127;BMP180;54931;52.098;21.006;2022-12-31T02:32:12;100033.00;;;3.20
68127;BMP180;54931;52.098;21.006;2022-12-31T02:35:00;100020.60;;;3.20
68127;BMP180;54931;52.098;21.006;2022-12-31T02:37:32;100013.80;;;3.30
68127;BMP180;54931;52.098;21.006;2022-12-31T02:40:06;100016.00;;;3.30
68127;BMP180;54931;52.098;21.006;2022-12-31T02:42:36;100020.00;;;3.40
68127;BMP180;54931;52.098;21.006;2022-12-31T02:45:06;100019.00;;;3.40
68127;BMP180;54931;52.098;21.006;2022-12-31T02:50:27;100024.20;;;3.50
68127;BMP180;54931;52.098;21.006;2022-12-31T02:53:07;100024.80;;;3.50
68127;BMP180;54931;52.098;21.006;2022-12-31T03:02:03;100028.00;;;3.50
68127;BMP180;54931;52.098;21.006;2022-12-31T03:04:49;100030.20;;;3.50
68127;BMP180;54931;52.098;21.006;2022-12-31T03:07:31;100022.40;;;3.46
68127;BMP180;54931;52.098;21.006;2022-12-31T03:10:00;100010.20;;;3.50
68127;BMP180;54931;52.098;21.006;2022-12-31T03:12:31;100010.80;;;3.50
68127;BMP180;54931;52.098;21.006;2022-12-31T03:15:22;100021.60;;;3.40
68127;BMP180;54931;52.098;21.006;2022-12-31T03:18:14;100034.00;;;3.44
68127;BMP180;54931;52.098;21.006;2022-12-31T03:20:49;100031.80;;;3.50
68127;BMP180;54931;52.098;21.006;2022-12-31T03:23:41;100039.20;;;3.50
68127;BMP180;54931;52.098;21.006;2022-12-31T03:26:11;100036.40;;;3.52
68127;BMP180;54931;52.098;21.006;2022-12-31T03:28:42;100043.80;;;3.60
68127;BMP180;54931;52.098;21.006;2022-12-31T03:31:14;100030.80;;;3.60
68127;BMP180;54931;52.098;21.006;2022-12-31T03:33:42;100030.00;;;3.70
68127;BMP180;54931;52.098;21.006;2022-12-31T03:36:13;100019.20;;;3.70
68127;BMP180;54931;52.098;21.006;2022-12-31T03:38:41;100020.60;;;3.80
68127;BMP180;54931;52.098;21.006;2022-12-31T03:41:10;100027.60;;;3.80
68127;BMP180;54931;52.098;21.006;2022-12-31T03:43:37;100035.40;;;3.90
68127;BMP180;54931;52.098;21.006;2022-12-31T03:46:05;100031.60;;;3.96
68127;BMP180;54931;52.098;21.006;2022-12-31T03:48:33;100035.60;;;4.00
68127;BMP180;54931;52.098;21.006;2022-12-31T03:51:01;100039.20;;;4.10
68127;BMP180;54931;52.098;21.006;2022-12-31T03:53:29;100038.60;;;4.12
68127;BMP180;54931;52.098;21.006;2022-12-31T03:55:57;100049.20;;;4.20
68127;BMP180;54931;52.098;21.006;2022-12-31T03:58:25;100046.20;;;4.30
68127;BMP180;54931;52.098;21.006;2022-12-31T04:00:53;100050.60;;;4.30
68127;BMP180;54931;52.098;21.006;2022-12-31T04:03:21;100056.40;;;4.36
68127;BMP180;54931;52.098;21.006;2022-12-31T04:05:55;100053.40;;;4.40
68127;BMP180;54931;52.098;21.006;2022-12-31T04:08:24;100060.80;;;4.40
68127;BMP180;54931;52.098;21.006;2022-12-31T04:10:52;100067.80;;;4.50
68127;BMP180;54931;52.098;21.006;2022-12-31T04:13:19;100072.40;;;4.50
68127;BMP180;54931;52.098;21.006;2022-12-31T04:15:50;100056.40;;;4.50
68127;BMP180;54931;52.098;21.006;2022-12-31T04:18:18;100055.20;;;4.58
68127;BMP180;54931;52.098;21.006;2022-12-31T04:20:46;100056.80;;;4.60
68127;BMP180;54931;52.098;21.006;2022-12-31T04:23:14;100051.20;;;4.60
68127;BMP180;54931;52.098;21.006;2022-12-31T04:25:41;100049.00;;;4.60
68127;BMP180;54931;52.098;21.006;2022-12-31T04:28:09;100051.60;;;4.64
68127;BMP180;54931;52.098;21.006;2022-12-31T04:30:37;100041.80;;;4.70
68127;BMP180;54931;52.098;21.006;2022-12-31T04:33:06;100039.20;;;4.70
68127;BMP180;54931;52.098;21.006;2022-12-31T04:35:33;100034.00;;;4.70
68127;BMP180;54931;52.098;21.006;2022-12-31T04:38:01;100044.20;;;4.70
68127;BMP180;54931;52.098;21.006;2022-12-31T04:40:29;100042.60;;;4.76
68127;BMP180;54931;52.098;21.006;2022-12-31T04:42:57;100048.00;;;4.80
68127;BMP180;54931;52.098;21.006;2022-12-31T04:45:25;100042.40;;;4.80
68127;BMP180;54931;52.098;21.006;2022-12-31T04:47:53;100044.20;;;4.80
68127;BMP180;54931;52.098;21.006;2022-12-31T04:50:21;100041.60;;;4.80
68127;BMP180;54931;52.098;21.006;2022-12-31T04:52:49;100032.40;;;4.80
68127;BMP180;54931;52.098;21.006;2022-12-31T04:55:17;100030.80;;;4.80
68127;BMP180;54931;52.098;21.006;2022-12-31T04:57:45;100032.40;;;4.80
68127;BMP180;54931;52.098;21.006;2022-12-31T05:00:13;100022.00;;;4.80
68127;BMP180;54931;52.098;21.006;2022-12-31T05:02:42;100026.40;;;4.80
68127;BMP180;54931;52.098;21.006;2022-12-31T05:05:09;100033.00;;;4.78
68127;BMP180;54931;52.098;21.006;2022-12-31T05:07:38;100045.80;;;4.80
68127;BMP180;54931;52.098;21.006;2022-12-31T05:10:07;100040.20;;;4.80
68127;BMP180;54931;52.098;21.006;2022-12-31T05:12:35;100051.60;;;4.80
68127;BMP180;54931;52.098;21.006;2022-12-31T05:15:04;100056.40;;;4.80
68127;BMP180;54931;52.098;21.006;2022-12-31T05:17:32;100052.20;;;4.90
68127;BMP180;54931;52.098;21.006;2022-12-31T05:20:00;100049.20;;;4.90
68127;BMP180;54931;52.098;21.006;2022-12-31T05:22:27;100046.40;;;4.92
68127;BMP180;54931;52.098;21.006;2022-12-31T05:24:57;100042.60;;;5.00
68127;BMP180;54931;52.098;21.006;2022-12-31T05:27:28;100043.00;;;5.00
68127;BMP180;54931;52.098;21.006;2022-12-31T05:29:59;100049.00;;;5.10
68127;BMP180;54931;52.098;21.006;2022-12-31T05:32:27;100049.20;;;5.10
68127;BMP180;54931;52.098;21.006;2022-12-31T05:34:57;100041.20;;;5.18
68127;BMP180;54931;52.098;21.006;2022-12-31T05:37:28;100048.00;;;5.20
68127;BMP180;54931;52.098;21.006;2022-12-31T05:39:56;100049.40;;;5.20
68127;BMP180;54931;52.098;21.006;2022-12-31T05:42:25;100047.20;;;5.30
68127;BMP180;54931;52.098;21.006;2022-12-31T05:44:53;100053.20;;;5.30
68127;BMP180;54931;52.098;21.006;2022-12-31T05:47:21;100052.40;;;5.40
68127;BMP180;54931;52.098;21.006;2022-12-31T05:49:49;100056.00;;;5.40
68127;BMP180;54931;52.098;21.006;2022-12-31T05:52:17;100050.00;;;5.50
68127;BMP180;54931;52.098;21.006;2022-12-31T05:54:44;100045.80;;;5.50
68127;BMP180;54931;52.098;21.006;2022-12-31T05:57:13;100037.60;;;5.60
68127;BMP180;54931;52.098;21.006;2022-12-31T05:59:40;100041.40;;;5.64
68127;BMP180;54931;52.098;21.006;2022-12-31T06:02:08;100031.20;;;5.70
68127;BMP180;54931;52.098;21.006;2022-12-31T06:04:36;100033.60;;;5.80
68127;BMP180;54931;52.098;21.006;2022-12-31T06:07:04;100029.60;;;5.80
68127;BMP180;54931;52.098;21.006;2022-12-31T06:09:32;100029.00;;;5.90
68127;BMP180;54931;52.098;21.006;2022-12-31T06:12:00;100034.40;;;5.90
68127;BMP180;54931;52.098;21.006;2022-12-31T06:14:27;100028.40;;;6.00
68127;BMP180;54931;52.098;21.006;2022-12-31T06:16:56;100027.40;;;6.00
68127;BMP180;54931;52.098;21.006;2022-12-31T06:19:24;100021.00;;;6.00
68127;BMP180;54931;52.098;21.006;2022-12-31T06:21:52;100018.80;;;6.10
68127;BMP180;54931;52.098;21.006;2022-12-31T06:24:19;100025.80;;;6.10
68127;BMP180;54931;52.098;21.006;2022-12-31T06:26:48;100026.80;;;6.16
68127;BMP180;54931;52.098;21.006;2022-12-31T06:29:16;100027.40;;;6.20
68127;BMP180;54931;52.098;21.006;2022-12-31T06:31:44;100038.00;;;6.20
68127;BMP180;54931;52.098;21.006;2022-12-31T06:34:12;100047.00;;;6.30
68127;BMP180;54931;52.098;21.006;2022-12-31T06:36:40;100054.00;;;6.30
68127;BMP180;54931;52.098;21.006;2022-12-31T06:39:07;100050.40;;;6.40
68127;BMP180;54931;52.098;21.006;2022-12-31T06:41:35;100052.20;;;6.40
68127;BMP180;54931;52.098;21.006;2022-12-31T06:44:04;100051.60;;;6.40
68127;BMP180;54931;52.098;21.006;2022-12-31T06:46:32;100052.60;;;6.50
68127;BMP180;54931;52.098;21.006;2022-12-31T06:49:00;100063.00;;;6.50
68127;BMP180;54931;52.098;21.006;2022-12-31T06:51:27;100052.80;;;6.50
68127;BMP180;54931;52.098;21.006;2022-12-31T06:53:55;100055.60;;;6.50
68127;BMP180;54931;52.098;21.006;2022-12-31T06:56:27;100058.40;;;6.50
68127;BMP180;54931;52.098;21.006;2022-12-31T06:58:56;100061.60;;;6.50
68127;BMP180;54931;52.098;21.006;2022-12-31T07:02:09;100067.60;;;6.54
68127;BMP180;54931;52.098;21.006;2022-12-31T07:11:15;100065.60;;;6.68
68127;BMP180;54931;52.098;21.006;2022-12-31T07:21:52;100080.80;;;6.80
68127;BMP180;54931;52.098;21.006;2022-12-31T07:24:22;100089.80;;;6.82
68127;BMP180;54931;52.098;21.006;2022-12-31T07:30:14;100099.40;;;6.90
68127;BMP180;54931;52.098;21.006;2022-12-31T07:41:49;100092.00;;;7.10
68127;BMP180;54931;52.098;21.006;2022-12-31T07:47:26;100099.40;;;7.22
68127;BMP180;54931;52.098;21.006;2022-12-31T07:49:56;100096.80;;;7.30
68127;BMP180;54931;52.098;21.006;2022-12-31T07:52:25;100094.00;;;7.30
68127;BMP180;54931;52.098;21.006;2022-12-31T07:54:53;100095.80;;;7.40
68127;BMP180;54931;52.098;21.006;2022-12-31T07:57:30;100097.00;;;7.40
68127;BMP180;54931;52.098;21.006;2022-12-31T08:00:11;100093.60;;;7.50
68127;BMP180;54931;52.098;21.006;2022-12-31T08:03:36;100083.80;;;7.50
68127;BMP180;54931;52.098;21.006;2022-12-31T08:06:45;100090.60;;;7.56
68127;BMP180;54931;52.098;21.006;2022-12-31T08:12:01;100105.40;;;7.60
68127;BMP180;54931;52.098;21.006;2022-12-31T08:14:36;100106.00;;;7.66
68127;BMP180;54931;52.098;21.006;2022-12-31T08:17:14;100111.40;;;7.70
68127;BMP180;54931;52.098;21.006;2022-12-31T08:19:43;100114.00;;;7.70
68127;BMP180;54931;52.098;21.006;2022-12-31T08:25:15;100112.00;;;7.80
68127;BMP180;54931;52.098;21.006;2022-12-31T08:31:35;100112.80;;;7.90
68127;BMP180;54931;52.098;21.006;2022-12-31T08:46:26;100131.20;;;8.34
68127;BMP180;54931;52.098;21.006;2022-12-31T08:48:56;100143.60;;;8.40
68127;BMP180;54931;52.098;21.006;2022-12-31T08:51:25;100138.20;;;8.50
68127;BMP180;54931;52.098;21.006;2022-12-31T08:53:54;100138.40;;;8.50
68127;BMP180;54931;52.098;21.006;2022-12-31T08:56:33;100138.20;;;8.60
68127;BMP180;54931;52.098;21.006;2022-12-31T09:05:35;100136.20;;;8.80
68127;BMP180;54931;52.098;21.006;2022-12-31T09:10:43;100124.80;;;8.90
68127;BMP180;54931;52.098;21.006;2022-12-31T09:16:32;100133.80;;;9.20
68127;BMP180;54931;52.098;21.006;2022-12-31T09:19:04;100124.40;;;9.70
68127;BMP180;54931;52.098;21.006;2022-12-31T09:21:32;100134.80;;;10.00
68127;BMP180;54931;52.098;21.006;2022-12-31T09:24:00;100136.40;;;10.12
68127;BMP180;54931;52.098;21.006;2022-12-31T09:30:06;100122.40;;;10.20
68127;BMP180;54931;52.098;21.006;2022-12-31T09:32:56;100119.80;;;10.10
68127;BMP180;54931;52.098;21.006;2022-12-31T09:35:53;100110.20;;;10.06
68127;BMP180;54931;52.098;21.006;2022-12-31T09:38:42;100109.40;;;10.00
68127;BMP180;54931;52.098;21.006;2022-12-31T09:41:49;100111.40;;;9.90
68127;BMP180;54931;52.098;21.006;2022-12-31T09:51:29;100098.00;;;9.74
68127;BMP180;54931;52.098;21.006;2022-12-31T10:00:20;100068.20;;;9.70
68127;BMP180;54931;52.098;21.006;2022-12-31T10:09:12;100060.80;;;9.80
68127;BMP180;54931;52.098;21.006;2022-12-31T10:18:31;100071.40;;;10.20
68127;BMP180;54931;52.098;21.006;2022-12-31T10:24:50;100062.60;;;10.50
68127;BMP180;54931;52.098;21.006;2022-12-31T10:27:39;100070.40;;;10.70
68127;BMP180;54931;52.098;21.006;2022-12-31T10:30:21;100080.60;;;10.90
68127;BMP180;54931;52.098;21.006;2022-12-31T10:37:09;100055.60;;;11.10
68127;BMP180;54931;52.098;21.006;2022-12-31T11:07:49;100023.40;;;11.16
68127;BMP180;54931;52.098;21.006;2022-12-31T11:10:53;100027.40;;;11.20
68127;BMP180;54931;52.098;21.006;2022-12-31T11:28:39;99991.00;;;11.40
68127;BMP180;54931;52.098;21.006;2022-12-31T11:42:56;100009.20;;;11.42
68127;BMP180;54931;52.098;21.006;2022-12-31T11:46:38;99998.20;;;11.46
68127;BMP180;54931;52.098;21.006;2022-12-31T11:57:49;99995.00;;;12.00
68127;BMP180;54931;52.098;21.006;2022-12-31T12:00:25;99999.20;;;12.04
68127;BMP180;54931;52.098;21.006;2022-12-31T12:03:05;99989.40;;;12.10
68127;BMP180;54931;52.098;21.006;2022-12-31T12:05:35;99975.00;;;12.10
68127;BMP180;54931;52.098;21.006;2022-12-31T12:08:05;99977.80;;;12.10
68127;BMP180;54931;52.098;21.006;2022-12-31T12:10:47;99989.00;;;12.10
68127;BMP180;54931;52.098;21.006;2022-12-31T12:15:57;100002.00;;;12.08
68127;BMP180;54931;52.098;21.006;2022-12-31T12:18:43;99995.40;;;12.08
68127;BMP180;54931;52.098;21.006;2022-12-31T12:21:20;99989.40;;;12.00
68127;BMP180;54931;52.098;21.006;2022-12-31T12:24:04;99983.60;;;12.00
68127;BMP180;54931;52.098;21.006;2022-12-31T12:26:41;99984.00;;;12.00
68127;BMP180;54931;52.098;21.006;2022-12-31T12:29:29;99988.20;;;11.90
68127;BMP180;54931;52.098;21.006;2022-12-31T12:32:15;99992.60;;;11.90
68127;BMP180;54931;52.098;21.006;2022-12-31T12:34:43;99994.20;;;11.82
68127;BMP180;54931;52.098;21.006;2022-12-31T12:39:58;99982.60;;;11.80
68127;BMP180;54931;52.098;21.006;2022-12-31T12:42:29;99976.60;;;11.70
68127;BMP180;54931;52.098;21.006;2022-12-31T12:45:26;99962.40;;;11.60
68127;BMP180;54931;52.098;21.006;2022-12-31T12:48:01;99964.40;;;11.60
68127;BMP180;54931;52.098;21.006;2022-12-31T12:50:44;99956.00;;;11.58
68127;BMP180;54931;52.098;21.006;2022-12-31T12:59:53;99953.60;;;11.50
68127;BMP180;54931;52.098;21.006;2022-12-31T13:16:46;99955.40;;;11.60
68127;BMP180;54931;52.098;21.006;2022-12-31T13:19:43;99954.00;;;11.58
68127;BMP180;54931;52.098;21.006;2022-12-31T13:24:56;99940.20;;;11.60
68127;BMP180;54931;52.098;21.006;2022-12-31T13:27:36;99942.40;;;11.60
68127;BMP180;54931;52.098;21.006;2022-12-31T13:30:24;99944.80;;;11.60
68127;BMP180;54931;52.098;21.006;2022-12-31T13:35:52;99941.00;;;11.60
68127;BMP180;54931;52.098;21.006;2022-12-31T13:41:27;99948.20;;;11.60
68127;BMP180;54931;52.098;21.006;2022-12-31T13:44:38;99940.80;;;11.60
68127;BMP180;54931;52.098;21.006;2022-12-31T13:47:27;99949.20;;;11.60
68127;BMP180;54931;52.098;21.006;2022-12-31T13:50:31;99944.20;;;11.64
68127;BMP180;54931;52.098;21.006;2022-12-31T13:53:28;99943.80;;;11.70
68127;BMP180;54931;52.098;21.006;2022-12-31T13:56:05;99937.80;;;11.70
68127;BMP180;54931;52.098;21.006;2022-12-31T13:59:12;99949.60;;;11.70
68127;BMP180;54931;52.098;21.006;2022-12-31T14:01:52;99952.80;;;11.70
68127;BMP180;54931;52.098;21.006;2022-12-31T14:04:32;99956.80;;;11.64
68127;BMP180;54931;52.098;21.006;2022-12-31T14:07:22;99959.80;;;11.60
68127;BMP180;54931;52.098;21.006;2022-12-31T14:09:53;99962.80;;;11.60
68127;BMP180;54931;52.098;21.006;2022-12-31T14:15:27;99969.80;;;11.70
68127;BMP180;54931;52.098;21.006;2022-12-31T14:20:53;99975.60;;;11.70
68127;BMP180;54931;52.098;21.006;2022-12-31T14:24:10;99970.80;;;11.70
68127;BMP180;54931;52.098;21.006;2022-12-31T14:26:46;99966.60;;;11.70
68127;BMP180;54931;52.098;21.006;2022-12-31T14:29:51;99974.00;;;11.70
68127;BMP180;54931;52.098;21.006;2022-12-31T14:35:39;99976.60;;;11.70
68127;BMP180;54931;52.098;21.006;2022-12-31T14:38:43;99985.40;;;11.70
68127;BMP180;54931;52.098;21.006;2022-12-31T14:41:42;99986.00;;;11.70
68127;BMP180;54931;52.098;21.006;2022-12-31T14:47:50;99984.60;;;11.80
68127;BMP180;54931;52.098;21.006;2022-12-31T14:50:27;99977.80;;;11.80
68127;BMP180;54931;52.098;21.006;2022-12-31T14:55:33;99980.40;;;11.90
68127;BMP180;54931;52.098;21.006;2022-12-31T14:58:19;99981.80;;;12.00
68127;BMP180;54931;52.098;21.006;2022-12-31T15:03:44;99975.00;;;12.10
68127;BMP180;54931;52.098;21.006;2022-12-31T15:17:33;99974.00;;;12.20
68127;BMP180;54931;52.098;21.006;2022-12-31T15:22:55;99972.80;;;12.20
68127;BMP180;54931;52.098;21.006;2022-12-31T15:28:01;99973.80;;;12.20
68127;BMP180;54931;52.098;21.006;2022-12-31T15:30:43;99978.80;;;12.30
68127;BMP180;54931;52.098;21.006;2022-12-31T15:33:38;99969.20;;;12.30
68127;BMP180;54931;52.098;21.006;2022-12-31T15:36:18;99979.60;;;12.30
68127;BMP180;54931;52.098;21.006;2022-12-31T15:38:47;99973.00;;;12.32
68127;BMP180;54931;52.098;21.006;2022-12-31T15:44:05;99959.80;;;12.40
68127;BMP180;54931;52.098;21.006;2022-12-31T15:46:39;99965.20;;;12.40
68127;BMP180;54931;52.098;21.006;2022-12-31T15:49:17;99963.60;;;12.44
68127;BMP180;54931;52.098;21.006;2022-12-31T15:52:13;99966.20;;;12.44
68127;BMP180;54931;52.098;21.006;2022-12-31T15:54:45;99962.40;;;12.40
68127;BMP180;54931;52.098;21.006;2022-12-31T15:57:25;99964.80;;;12.40
68127;BMP180;54931;52.098;21.006;2022-12-31T15:59:59;99977.80;;;12.40
68127;BMP180;54931;52.098;21.006;2022-12-31T16:02:28;99968.40;;;12.40
68127;BMP180;54931;52.098;21.006;2022-12-31T16:04:56;99966.80;;;12.40
68127;BMP180;54931;52.098;21.006;2022-12-31T16:07:27;99967.20;;;12.40
68127;BMP180;54931;52.098;21.006;2022-12-31T16:10:06;99965.00;;;12.40
68127;BMP180;54931;52.098;21.006;2022-12-31T16:12:38;99969.20;;;12.40
68127;BMP180;54931;52.098;21.006;2022-12-31T16:15:26;99972.80;;;12.40
68127;BMP180;54931;52.098;21.006;2022-12-31T16:18:10;99978.80;;;12.50
68127;BMP180;54931;52.098;21.006;2022-12-31T16:20:44;99975.80;;;12.50
68127;BMP180;54931;52.098;21.006;2022-12-31T16:23:25;99985.00;;;12.50
68127;BMP180;54931;52.098;21.006;2022-12-31T16:26:00;99988.60;;;12.50
68127;BMP180;54931;52.098;21.006;2022-12-31T16:28:31;99992.60;;;12.50
68127;BMP180;54931;52.098;21.006;2022-12-31T16:31:15;99993.20;;;12.50
68127;BMP180;54931;52.098;21.006;2022-12-31T16:33:45;99997.00;;;12.50
68127;BMP180;54931;52.098;21.006;2022-12-31T16:36:22;100002.20;;;12.52
68127;BMP180;54931;52.098;21.006;2022-12-31T16:38:50;100009.00;;;12.60
68127;BMP180;54931;52.098;21.006;2022-12-31T16:41:20;100005.60;;;12.60
68127;BMP180;54931;52.098;21.006;2022-12-31T16:43:50;100006.20;;;12.70
68127;BMP180;54931;52.098;21.006;2022-12-31T16:46:24;100001.20;;;12.70
68127;BMP180;54931;52.098;21.006;2022-12-31T16:49:04;100002.20;;;12.70
68127;BMP180;54931;52.098;21.006;2022-12-31T16:51:36;100002.60;;;12.70
68127;BMP180;54931;52.098;21.006;2022-12-31T16:54:19;100004.00;;;12.70
68127;BMP180;54931;52.098;21.006;2022-12-31T16:56:50;100001.80;;;12.70
68127;BMP180;54931;52.098;21.006;2022-12-31T16:59:32;99988.40;;;12.70
68127;BMP180;54931;52.098;21.006;2022-12-31T17:02:29;99988.80;;;12.70
68127;BMP180;54931;52.098;21.006;2022-12-31T17:04:54;100001.80;;;12.70
68127;BMP180;54931;52.098;21.006;2022-12-31T17:13:19;100001.40;;;12.80
68127;BMP180;54931;52.098;21.006;2022-12-31T17:15:41;100004.60;;;12.80
68127;BMP180;54931;52.098;21.006;2022-12-31T17:18:29;100006.20;;;12.80
68127;BMP180;54931;52.098;21.006;2022-12-31T17:21:07;99998.40;;;12.80
68127;BMP180;54931;52.098;21.006;2022-12-31T17:23:38;99990.80;;;12.90
68127;BMP180;54931;52.098;21.006;2022-12-31T17:26:14;100001.80;;;12.90
68127;BMP180;54931;52.098;21.006;2022-12-31T17:28:51;100005.60;;;13.00
68127;BMP180;54931;52.098;21.006;2022-12-31T17:31:37;99996.20;;;13.00
68127;BMP180;54931;52.098;21.006;2022-12-31T17:37:09;100006.00;;;12.90
68127;BMP180;54931;52.098;21.006;2022-12-31T17:39:51;100012.20;;;12.90
68127;BMP180;54931;52.098;21.006;2022-12-31T17:42:28;100018.00;;;12.80
68127;BMP180;54931;52.098;21.006;2022-12-31T17:45:06;100008.20;;;12.78
68127;BMP180;54931;52.098;21.006;2022-12-31T17:47:40;100020.00;;;12.70
68127;BMP180;54931;52.098;21.006;2022-12-31T17:50:22;100014.40;;;12.60
68127;BMP180;54931;52.098;21.006;2022-12-31T17:53:11;100014.80;;;12.60
68127;BMP180;54931;52.098;21.006;2022-12-31T17:55:41;100016.20;;;12.50
68127;BMP180;54931;52.098;21.006;2022-12-31T17:58:23;100025.40;;;12.50
68127;BMP180;54931;52.098;21.006;2022-12-31T18:00:54;100020.00;;;12.40
68127;BMP180;54931;52.098;21.006;2022-12-31T18:03:22;100020.60;;;12.40
68127;BMP180;54931;52.098;21.006;2022-12-31T18:05:50;100020.80;;;12.40
68127;BMP180;54931;52.098;21.006;2022-12-31T18:08:17;100020.20;;;12.40
68127;BMP180;54931;52.098;21.006;2022-12-31T18:10:46;100018.80;;;12.42
68127;BMP180;54931;52.098;21.006;2022-12-31T18:13:20;100024.60;;;12.50
68127;BMP180;54931;52.098;21.006;2022-12-31T18:15:49;100019.40;;;12.50
68127;BMP180;54931;52.098;21.006;2022-12-31T18:18:24;100020.00;;;12.60
68127;BMP180;54931;52.098;21.006;2022-12-31T18:21:06;100022.40;;;12.70
68127;BMP180;54931;52.098;21.006;2022-12-31T18:23:42;100030.40;;;12.70
68127;BMP180;54931;52.098;21.006;2022-12-31T18:26:20;100026.60;;;12.80
68127;BMP180;54931;52.098;21.006;2022-12-31T18:28:49;100033.80;;;12.88
68127;BMP180;54931;52.098;21.006;2022-12-31T18:31:26;100034.20;;;12.90
68127;BMP180;54931;52.098;21.006;2022-12-31T18:33:57;100035.60;;;12.90
68127;BMP180;54931;52.098;21.006;2022-12-31T18:36:27;100040.40;;;12.98
68127;BMP180;54931;52.098;21.006;2022-12-31T18:38:55;100039.40;;;13.00
68127;BMP180;54931;52.098;21.006;2022-12-31T18:41:26;100037.80;;;13.00
68127;BMP180;54931;52.098;21.006;2022-12-31T18:43:55;100027.20;;;13.10
68127;BMP180;54931;52.098;21.006;2022-12-31T18:46:24;100027.80;;;13.10
68127;BMP180;54931;52.098;21.006;2022-12-31T18:48:53;100033.20;;;13.10
68127;BMP180;54931;52.098;21.006;2022-12-31T18:51:23;100036.40;;;13.10
68127;BMP180;54931;52.098;21.006;2022-12-31T18:53:51;100034.60;;;13.10
68127;BMP180;54931;52.098;21.006;2022-12-31T18:56:20;100030.40;;;13.14
68127;BMP180;54931;52.098;21.006;2022-12-31T18:58:48;100033.60;;;13.20
68127;BMP180;54931;52.098;21.006;2022-12-31T19:01:34;100035.00;;;13.20
68127;BMP180;54931;52.098;21.006;2022-12-31T19:04:16;100037.80;;;13.20
68127;BMP180;54931;52.098;21.006;2022-12-31T19:06:47;100028.20;;;13.20
68127;BMP180;54931;52.098;21.006;2022-12-31T19:09:15;100038.20;;;13.20